메인 페이지
METAR-TAF:

METAR-TAF

공항 :

Mfuwe, 잠비아

위도: 13-15-32S, 경도: 031-56-12E, 고도: 573m

METAR: 누락

시각: 03:23 (01:23 UTC)

예보

예보는 3 시간 23분 전, 22:00시(UTC)에 발표되었습니다.
예보 대상 시간: 29일 00시부터 30일 06시까지 (UTC)
10kt
시정 10km 이상
1500m 미만 상공 구름 및 적란운 없음
전환 중
29일 04시부터 29일 06시까지 (UTC)
동북동10kt
시정: 9000m
연무
전환 중
29일 09시부터 29일 11시까지 (UTC)
10kt
29일 1600시부터 (UTC)
10kt, 순간 최대 풍속 15kt
시정 10km 이상
1500m 미만 상공 구름 및 적란운 없음

TAF: FLMF 282200Z 2900/3006 09010KT CAVOK BECMG 2904/2906 07010KT 9000 HZ NSC BECMG 2909/2911 10010KT FM291600 09010G15KT CAVOK

4,000개 이상의 공항 관측 자료 및 예보 (METAR 및 TAF 보고).

지도상에서 검색 가능한 기상관측소가 노란 점과 빨간 점으로 표시되어 있습니다.

기상관측소 명을 보려면 표시 위로 마우스를 이동하세요.

날씨 관측과 예보를 보려면 클릭하세요.

지도 변경 : 확대하려면 엑스 표시가 있는 녹색 버튼, 축소하려면 빼기 표시가 있는 녹색 버튼, 다음 페이지의 지도를 보려면 녹색 화살표를 클릭하세요.


METAR-TAF: